createdAt,value
2017-09-15T00:00:22.895Z,70.93
2017-09-15T00:02:50.035Z,70.90
2017-09-15T00:05:17.195Z,70.91
2017-09-15T00:07:44.334Z,70.93
2017-09-15T00:10:11.474Z,70.96
2017-09-15T00:12:38.857Z,70.96
2017-09-15T00:15:06.759Z,70.94
2017-09-15T00:17:33.907Z,70.96
2017-09-15T00:20:01.068Z,70.94
2017-09-15T00:22:28.210Z,70.93
2017-09-15T00:24:55.349Z,70.93
2017-09-15T00:27:22.489Z,70.89
2017-09-15T00:29:49.625Z,70.92
2017-09-15T00:32:16.757Z,70.92
2017-09-15T00:34:43.908Z,70.92
2017-09-15T00:37:11.063Z,70.93
2017-09-15T00:39:38.196Z,70.93
2017-09-15T00:42:06.110Z,70.92
2017-09-15T00:44:33.276Z,70.93
2017-09-15T00:47:00.414Z,70.93
2017-09-15T00:49:27.564Z,70.93
2017-09-15T00:51:54.706Z,70.93
2017-09-15T00:54:21.845Z,70.93
2017-09-15T00:56:48.982Z,70.94
2017-09-15T00:59:16.136Z,70.94
2017-09-15T01:01:43.286Z,70.93
2017-09-15T01:04:10.444Z,70.94
2017-09-15T01:06:37.609Z,70.93
2017-09-15T01:09:04.764Z,70.94
2017-09-15T01:11:31.916Z,70.94
2017-09-15T01:13:59.074Z,70.94
2017-09-15T01:16:26.223Z,70.94
2017-09-15T01:18:53.357Z,70.93
2017-09-15T01:21:20.532Z,70.94
2017-09-15T01:23:47.684Z,70.94
2017-09-15T01:26:14.839Z,70.93
2017-09-15T01:28:41.987Z,70.95
2017-09-15T01:31:09.125Z,70.96
2017-09-15T01:33:36.256Z,70.96
2017-09-15T01:36:03.407Z,70.95
2017-09-15T01:38:30.560Z,70.94
2017-09-15T01:40:57.732Z,70.95
2017-09-15T01:43:24.883Z,70.96
2017-09-15T01:45:52.062Z,70.96
2017-09-15T01:48:19.247Z,70.95
2017-09-15T01:50:46.427Z,70.95
2017-09-15T01:53:13.595Z,70.95
2017-09-15T01:55:40.748Z,70.94
2017-09-15T01:58:07.903Z,70.94
2017-09-15T02:00:35.055Z,70.94
2017-09-15T02:03:02.209Z,70.94
2017-09-15T02:05:29.372Z,70.95
2017-09-15T02:07:56.520Z,70.96
2017-09-15T02:10:23.700Z,70.95
2017-09-15T02:12:50.873Z,70.95
2017-09-15T02:15:18.014Z,70.95
2017-09-15T02:17:45.176Z,70.95
2017-09-15T02:20:12.352Z,70.96
2017-09-15T02:22:39.499Z,70.95
2017-09-15T02:25:06.651Z,70.94
2017-09-15T02:27:33.807Z,70.93
2017-09-15T02:30:00.970Z,70.92
2017-09-15T02:32:28.117Z,70.93
2017-09-15T02:34:55.266Z,70.94
2017-09-15T02:37:22.424Z,70.93
2017-09-15T02:39:49.596Z,70.92
2017-09-15T02:42:16.733Z,70.93
2017-09-15T02:44:43.883Z,70.92
2017-09-15T02:47:11.049Z,70.92
2017-09-15T02:49:38.205Z,70.92
2017-09-15T02:52:05.356Z,70.92
2017-09-15T02:54:32.493Z,70.92
2017-09-15T02:56:59.638Z,70.91
2017-09-15T02:59:26.782Z,70.92
2017-09-15T03:01:53.936Z,70.92
2017-09-15T03:04:21.104Z,70.91
2017-09-15T03:06:48.337Z,70.92
2017-09-15T03:09:16.237Z,70.91
2017-09-15T03:11:43.392Z,70.91
2017-09-15T03:14:10.543Z,70.92
2017-09-15T03:16:37.695Z,70.92
2017-09-15T03:19:04.830Z,70.92
2017-09-15T03:21:32.032Z,70.91
2017-09-15T03:23:59.188Z,70.90
2017-09-15T03:26:26.484Z,70.90
2017-09-15T03:28:53.643Z,70.91
2017-09-15T03:31:20.782Z,70.90
2017-09-15T03:33:47.922Z,70.90
2017-09-15T03:36:15.057Z,70.92
2017-09-15T03:38:42.980Z,70.91
2017-09-15T03:41:10.140Z,70.91
2017-09-15T03:43:37.295Z,70.91
2017-09-15T03:46:04.444Z,70.91
2017-09-15T03:48:31.590Z,70.91
2017-09-15T03:50:58.725Z,70.91
2017-09-15T03:53:25.866Z,70.91
2017-09-15T03:55:53.006Z,70.91
2017-09-15T03:58:20.155Z,70.91
2017-09-15T04:00:47.289Z,70.91
2017-09-15T04:03:14.421Z,70.91
2017-09-15T04:05:41.558Z,70.90
2017-09-15T04:08:08.713Z,70.90
2017-09-15T04:10:35.913Z,70.91
2017-09-15T04:13:03.046Z,70.91
2017-09-15T04:15:30.198Z,70.91
2017-09-15T04:17:57.361Z,70.91
2017-09-15T04:20:24.512Z,70.90
2017-09-15T04:22:51.646Z,70.91
2017-09-15T04:25:18.786Z,70.91
2017-09-15T04:27:45.925Z,70.91
2017-09-15T04:30:13.069Z,70.92
2017-09-15T04:32:40.205Z,70.91
2017-09-15T04:35:07.342Z,70.91
2017-09-15T04:37:34.512Z,70.91
2017-09-15T04:40:01.700Z,70.92
2017-09-15T04:42:28.842Z,70.92
2017-09-15T04:44:55.981Z,70.91
2017-09-15T04:47:23.123Z,70.91
2017-09-15T04:49:50.275Z,70.91
2017-09-15T04:52:17.431Z,70.91
2017-09-15T04:54:44.569Z,70.91
2017-09-15T04:57:11.706Z,70.92
2017-09-15T04:59:38.846Z,70.91
2017-09-15T05:02:05.999Z,70.91
2017-09-15T05:04:33.133Z,70.91
2017-09-15T05:07:00.265Z,70.91
2017-09-15T05:09:27.409Z,70.91
2017-09-15T05:11:54.564Z,70.91
2017-09-15T05:14:21.701Z,70.91
2017-09-15T05:16:48.856Z,70.90
2017-09-15T05:19:16.012Z,70.91
2017-09-15T05:21:43.159Z,70.91
2017-09-15T05:24:10.312Z,70.89
2017-09-15T05:26:37.463Z,70.89
2017-09-15T05:29:04.619Z,70.90
2017-09-15T05:31:31.779Z,70.90
2017-09-15T05:33:58.933Z,70.91
2017-09-15T05:36:26.077Z,70.91
2017-09-15T05:38:53.239Z,70.91
2017-09-15T05:41:20.420Z,70.90
2017-09-15T05:43:47.783Z,70.91
2017-09-15T05:46:14.940Z,70.91
2017-09-15T05:48:42.088Z,70.89
2017-09-15T05:51:09.327Z,70.91
2017-09-15T05:53:36.474Z,70.91
2017-09-15T05:56:03.628Z,70.91
2017-09-15T05:58:30.780Z,70.92
2017-09-15T06:00:57.931Z,70.92
2017-09-15T06:03:25.079Z,70.91
2017-09-15T06:05:52.253Z,70.92
2017-09-15T06:08:19.390Z,70.91
2017-09-15T06:10:46.540Z,70.91
2017-09-15T06:13:13.692Z,70.91
2017-09-15T06:15:40.843Z,70.91
2017-09-15T06:18:07.977Z,70.91
2017-09-15T06:20:35.155Z,70.91
2017-09-15T06:23:02.295Z,70.92
2017-09-15T06:25:29.437Z,70.91
2017-09-15T06:27:56.601Z,70.91
2017-09-15T06:30:23.750Z,70.92
2017-09-15T06:32:50.886Z,70.92
2017-09-15T06:35:18.068Z,70.92
2017-09-15T06:37:45.229Z,70.92
2017-09-15T06:40:12.388Z,70.89
2017-09-15T06:42:39.564Z,70.92
2017-09-15T06:45:06.705Z,70.92
2017-09-15T06:47:33.862Z,70.92
2017-09-15T06:50:01.016Z,70.92
2017-09-15T06:52:28.153Z,70.92
2017-09-15T06:54:55.293Z,70.93
2017-09-15T06:57:22.437Z,70.93
2017-09-15T06:59:49.573Z,70.93
2017-09-15T07:02:16.892Z,70.94
2017-09-15T07:04:44.044Z,70.93
2017-09-15T07:07:11.178Z,70.93
2017-09-15T07:09:39.089Z,70.93
2017-09-15T07:12:06.261Z,70.92
2017-09-15T07:14:33.411Z,70.93
2017-09-15T07:17:00.545Z,70.93
2017-09-15T07:19:27.704Z,70.93
2017-09-15T07:21:54.849Z,70.94
2017-09-15T07:24:22.008Z,70.93
2017-09-15T07:26:49.167Z,70.94
2017-09-15T07:29:16.321Z,70.94
2017-09-15T07:31:43.467Z,70.94
2017-09-15T07:34:10.640Z,70.94
2017-09-15T07:36:37.795Z,70.95
2017-09-15T07:39:04.951Z,70.96
2017-09-15T07:41:32.102Z,70.96
2017-09-15T07:43:59.251Z,70.96
2017-09-15T07:46:26.511Z,70.96
2017-09-15T07:48:54.433Z,70.96
2017-09-15T07:51:21.592Z,70.96
2017-09-15T07:53:48.753Z,70.97
2017-09-15T07:56:15.890Z,70.98
2017-09-15T07:58:43.042Z,70.97
2017-09-15T08:01:10.177Z,70.98
2017-09-15T08:03:37.313Z,70.98
2017-09-15T08:06:04.454Z,70.98
2017-09-15T09:27:43.189Z,71.08
2017-09-15T09:30:10.348Z,71.09
2017-09-15T09:32:37.481Z,71.09
2017-09-15T09:35:04.622Z,71.09
2017-09-15T09:37:31.757Z,71.10
2017-09-15T09:39:58.906Z,71.12
2017-09-15T09:42:26.049Z,71.10
2017-09-15T09:44:53.207Z,71.10
2017-09-15T09:47:20.359Z,71.11
2017-09-15T09:49:47.513Z,71.12
2017-09-15T09:52:14.665Z,71.13
2017-09-15T09:54:41.805Z,71.13
2017-09-15T09:57:08.973Z,71.12
2017-09-15T09:59:36.148Z,71.12
2017-09-15T10:02:03.302Z,71.13
2017-09-15T10:04:30.438Z,71.14
2017-09-15T10:06:57.580Z,71.15
2017-09-15T10:09:24.732Z,71.14
2017-09-15T10:11:51.869Z,71.13
2017-09-15T10:14:19.013Z,71.14
2017-09-15T10:16:46.167Z,71.15
2017-09-15T10:19:13.306Z,71.15
2017-09-15T10:21:40.460Z,71.15
2017-09-15T10:24:07.605Z,71.16
2017-09-15T10:26:34.746Z,71.16
2017-09-15T10:29:01.900Z,71.16
2017-09-15T10:31:29.043Z,71.16
2017-09-15T10:33:56.488Z,71.16
2017-09-15T10:36:23.643Z,71.14
2017-09-15T10:38:50.796Z,71.14
2017-09-15T10:41:17.929Z,71.15
2017-09-15T10:43:45.067Z,71.15
2017-09-15T10:46:12.220Z,71.17
2017-09-15T10:48:39.366Z,71.17
2017-09-15T10:51:06.519Z,71.16
2017-09-15T10:53:33.661Z,71.15
2017-09-15T10:56:00.794Z,71.15
2017-09-15T10:58:33.429Z,71.16
2017-09-15T11:01:00.561Z,71.16
2017-09-15T11:03:27.689Z,71.17
2017-09-15T11:05:54.855Z,71.16
2017-09-15T11:08:21.994Z,71.15
2017-09-15T11:10:49.151Z,71.18
2017-09-15T11:13:16.300Z,71.18
2017-09-15T11:15:43.451Z,71.17
2017-09-15T11:18:10.585Z,71.20
2017-09-15T11:20:37.737Z,71.19
2017-09-15T11:23:04.915Z,71.18
2017-09-15T11:25:32.058Z,71.19
2017-09-15T11:27:59.521Z,71.20
2017-09-15T11:30:26.681Z,71.19
2017-09-15T11:32:53.843Z,71.19
2017-09-15T11:35:21.005Z,71.21
2017-09-15T11:37:48.145Z,71.20
2017-09-15T11:40:15.289Z,71.21
2017-09-15T11:42:42.714Z,71.20
2017-09-15T11:45:09.854Z,71.20
2017-09-15T11:47:37.011Z,71.23
2017-09-15T11:50:04.262Z,71.23
2017-09-15T11:52:31.426Z,71.21
2017-09-15T11:54:58.579Z,71.23
2017-09-15T11:57:25.748Z,71.26
2017-09-15T11:59:52.889Z,71.27
2017-09-15T12:02:20.059Z,71.27
2017-09-15T12:04:47.223Z,71.26
2017-09-15T12:07:14.399Z,71.26
2017-09-15T12:09:41.628Z,71.26
2017-09-15T12:12:08.789Z,71.26
2017-09-15T12:14:35.960Z,71.25
2017-09-15T12:17:03.127Z,71.27
2017-09-15T12:19:30.261Z,71.28
2017-09-15T12:21:57.420Z,71.26
2017-09-15T12:24:24.556Z,71.27
2017-09-15T12:26:52.493Z,71.27
2017-09-15T12:29:21.818Z,71.28
2017-09-15T12:31:48.953Z,71.27
2017-09-15T12:34:16.801Z,71.28
2017-09-15T12:36:44.720Z,71.28
2017-09-15T12:39:12.462Z,71.28
2017-09-15T12:41:39.667Z,71.28
2017-09-15T12:44:07.889Z,71.27
2017-09-15T12:46:35.051Z,71.28
2017-09-15T12:49:02.204Z,71.27
2017-09-15T12:51:29.353Z,71.27
2017-09-15T12:53:56.505Z,71.27
2017-09-15T12:56:23.660Z,71.26
2017-09-15T12:58:51.096Z,71.27
2017-09-15T13:01:18.248Z,71.28
2017-09-15T13:03:45.390Z,71.26
2017-09-15T13:06:12.531Z,71.28
2017-09-15T13:08:39.684Z,71.29
2017-09-15T13:11:06.834Z,71.28
2017-09-15T13:13:34.742Z,71.28
2017-09-15T13:16:01.899Z,71.28
2017-09-15T13:18:29.813Z,71.29
2017-09-15T13:20:57.717Z,71.29
2017-09-15T13:23:25.591Z,71.29
2017-09-15T13:25:53.518Z,71.28
2017-09-15T13:28:20.724Z,71.28
2017-09-15T13:30:47.880Z,71.26
2017-09-15T13:33:15.040Z,71.26
2017-09-15T13:35:42.727Z,71.28
2017-09-15T13:38:10.108Z,71.27
2017-09-15T13:40:37.250Z,71.28
2017-09-15T13:43:04.408Z,71.28
2017-09-15T13:45:31.568Z,71.28
2017-09-15T13:47:58.728Z,71.28
2017-09-15T13:50:25.883Z,71.29
2017-09-15T13:52:53.043Z,71.29
2017-09-15T13:55:20.186Z,71.28
2017-09-15T13:57:47.348Z,71.28
2017-09-15T14:00:14.498Z,71.29
2017-09-15T14:02:41.655Z,71.30
2017-09-15T14:05:08.802Z,71.30
2017-09-15T14:07:35.959Z,71.31
2017-09-15T14:10:03.103Z,71.30
2017-09-15T14:12:30.255Z,71.30
2017-09-15T14:14:57.416Z,71.31
2017-09-15T14:17:24.576Z,71.31
2017-09-15T14:19:51.722Z,71.31
2017-09-15T14:22:18.867Z,71.29
2017-09-15T14:24:46.015Z,71.28
2017-09-15T14:27:13.172Z,71.28
2017-09-15T14:29:40.318Z,71.28
2017-09-15T14:32:07.474Z,71.29
2017-09-15T14:34:34.640Z,71.30
2017-09-15T14:37:01.797Z,71.29
2017-09-15T14:39:28.958Z,71.31
2017-09-15T14:41:56.098Z,71.31
2017-09-15T14:44:23.247Z,71.31
2017-09-15T14:46:50.409Z,71.33
2017-09-15T14:49:17.595Z,71.31
2017-09-15T14:51:44.759Z,71.31
2017-09-15T14:54:11.919Z,71.30
2017-09-15T14:56:39.244Z,71.29
2017-09-15T14:59:06.395Z,71.30
2017-09-15T15:01:33.538Z,71.30
2017-09-15T15:04:00.710Z,71.30
2017-09-15T15:06:27.876Z,71.30
2017-09-15T15:08:55.022Z,71.30
2017-09-15T15:11:22.184Z,71.30
2017-09-15T15:13:49.360Z,71.30
2017-09-15T15:16:17.021Z,71.30
2017-09-15T15:18:44.681Z,71.29
2017-09-15T15:21:12.287Z,71.31
2017-09-15T15:23:39.459Z,71.31
2017-09-15T15:26:07.377Z,71.33
2017-09-15T15:28:34.700Z,71.31
2017-09-15T15:31:02.288Z,71.31
2017-09-15T15:33:29.473Z,71.32
2017-09-15T15:35:56.659Z,71.30
2017-09-15T15:38:25.410Z,71.30
2017-09-15T15:40:53.061Z,71.30
2017-09-15T15:43:21.627Z,71.30
2017-09-15T15:45:49.195Z,71.31
2017-09-15T15:48:16.878Z,71.30
2017-09-15T15:50:44.800Z,71.30
2017-09-15T15:53:11.948Z,71.30
2017-09-15T15:55:39.090Z,71.30
2017-09-15T15:58:06.255Z,71.30
2017-09-15T16:00:33.421Z,71.28
2017-09-15T16:03:00.571Z,71.28
2017-09-15T16:05:27.992Z,71.27
2017-09-15T16:07:55.448Z,71.29
2017-09-15T16:10:22.610Z,71.29
2017-09-15T16:12:49.750Z,71.29
2017-09-15T16:15:16.890Z,71.29
2017-09-15T16:17:44.797Z,71.29
2017-09-15T16:20:11.929Z,71.29
2017-09-15T16:22:39.069Z,71.30
2017-09-15T16:25:06.209Z,71.31
2017-09-15T16:27:33.396Z,71.31
2017-09-15T16:30:00.580Z,71.31
2017-09-15T16:32:27.763Z,71.32
2017-09-15T16:34:54.915Z,71.32
2017-09-15T16:37:21.503Z,71.31
2017-09-15T16:39:54.186Z,71.31
2017-09-15T16:42:26.897Z,71.30
2017-09-15T16:45:00.464Z,71.32
2017-09-15T16:47:33.180Z,71.32
2017-09-15T16:50:01.121Z,71.32
2017-09-15T16:52:28.280Z,71.32
2017-09-15T16:54:55.426Z,71.33
2017-09-15T16:57:22.593Z,71.34
2017-09-15T16:59:49.752Z,71.32
2017-09-15T17:02:16.940Z,71.31
2017-09-15T17:04:44.096Z,71.31
2017-09-15T17:07:11.248Z,71.31
2017-09-15T17:09:38.380Z,71.30
2017-09-15T17:12:05.549Z,71.29
2017-09-15T17:14:32.694Z,71.30
2017-09-15T17:16:59.829Z,71.30
2017-09-15T17:19:26.988Z,71.30
2017-09-15T17:21:54.138Z,71.30
2017-09-15T17:24:21.291Z,71.29
2017-09-15T17:26:48.426Z,71.29
2017-09-15T17:29:15.590Z,71.29
2017-09-15T17:31:42.757Z,71.29
2017-09-15T17:34:09.908Z,71.29
2017-09-15T17:36:37.051Z,71.31
2017-09-15T17:39:04.226Z,71.31
2017-09-15T17:41:31.385Z,71.30
2017-09-15T17:43:58.539Z,71.31
2017-09-15T17:46:25.701Z,71.30
2017-09-15T17:48:53.633Z,71.30
2017-09-15T17:51:20.783Z,71.30
2017-09-15T17:53:47.931Z,71.31
2017-09-15T17:56:15.065Z,71.32
2017-09-15T17:58:42.233Z,71.30
2017-09-15T18:01:09.392Z,71.30
2017-09-15T18:03:36.526Z,71.32
2017-09-15T18:06:03.662Z,71.32
2017-09-15T18:08:30.820Z,71.32
2017-09-15T18:10:57.972Z,71.31
2017-09-15T18:13:25.133Z,71.31
2017-09-15T18:15:52.287Z,71.31
2017-09-15T18:18:19.440Z,71.31
2017-09-15T18:20:46.597Z,71.31
2017-09-15T18:23:13.759Z,71.33
2017-09-15T18:25:40.903Z,71.33
2017-09-15T18:28:08.058Z,71.32
2017-09-15T18:30:35.212Z,71.31
2017-09-15T18:33:02.380Z,71.31
2017-09-15T18:35:29.535Z,71.32
2017-09-15T18:37:56.694Z,71.31
2017-09-15T18:40:23.834Z,71.32
2017-09-15T18:42:51.010Z,71.32
2017-09-15T18:45:18.158Z,71.32
2017-09-15T18:47:45.313Z,71.32
2017-09-15T18:50:12.453Z,71.32
2017-09-15T18:52:39.599Z,71.32
2017-09-15T18:55:06.760Z,71.31
2017-09-15T18:57:34.194Z,71.31
2017-09-15T19:00:01.354Z,71.30
2017-09-15T19:02:28.516Z,71.31
2017-09-15T19:04:55.687Z,71.30
2017-09-15T19:07:22.826Z,71.30
2017-09-15T19:09:49.974Z,71.31
2017-09-15T19:12:17.511Z,71.30
2017-09-15T19:14:44.659Z,71.32
2017-09-15T19:17:11.799Z,71.30
2017-09-15T19:19:39.714Z,71.31
2017-09-15T19:22:06.876Z,71.31
2017-09-15T19:24:34.172Z,71.31
2017-09-15T19:27:01.313Z,71.31
2017-09-15T19:29:29.222Z,71.31
2017-09-15T19:31:56.381Z,71.31
2017-09-15T19:34:23.553Z,71.31
2017-09-15T19:36:50.730Z,71.31
2017-09-15T19:39:17.965Z,71.31
2017-09-15T19:41:45.896Z,71.32
2017-09-15T19:44:13.873Z,71.31
2017-09-15T19:46:41.040Z,71.31
2017-09-15T19:49:08.205Z,71.31
2017-09-15T19:51:35.399Z,71.31
2017-09-15T19:54:02.731Z,71.31
2017-09-15T19:56:30.657Z,71.31
2017-09-15T19:58:57.808Z,71.32
2017-09-15T20:01:24.965Z,71.31
2017-09-15T20:03:52.115Z,71.31
2017-09-15T20:06:19.256Z,71.30
2017-09-15T20:08:46.420Z,71.30
2017-09-15T20:11:13.581Z,71.30
2017-09-15T20:13:40.731Z,71.30
2017-09-15T20:16:07.871Z,71.30
2017-09-15T20:18:35.025Z,71.30
2017-09-15T20:21:02.171Z,71.30
2017-09-15T20:23:29.310Z,71.30
2017-09-15T20:25:56.472Z,71.30
2017-09-15T20:28:23.648Z,71.30
2017-09-15T20:30:50.819Z,71.30
2017-09-15T20:33:17.954Z,71.29
2017-09-15T20:35:45.104Z,71.27
2017-09-15T20:38:12.247Z,71.29
2017-09-15T20:40:39.399Z,71.27
2017-09-15T20:43:06.542Z,71.27
2017-09-15T20:45:33.677Z,71.27
2017-09-15T20:48:00.817Z,71.26
2017-09-15T20:50:27.974Z,71.26
2017-09-15T20:52:55.152Z,71.25
2017-09-15T20:55:22.312Z,71.25
2017-09-15T20:57:49.476Z,71.26
2017-09-15T21:00:16.618Z,71.25
2017-09-15T21:02:43.767Z,71.25
2017-09-15T21:05:10.915Z,71.26
2017-09-15T21:07:38.050Z,71.25
2017-09-15T21:10:05.209Z,71.25
2017-09-15T21:12:32.359Z,71.25
2017-09-15T21:14:59.498Z,71.25
2017-09-15T21:17:26.666Z,71.24
2017-09-15T21:19:53.803Z,71.24
2017-09-15T21:22:20.956Z,71.24
2017-09-15T21:24:48.105Z,71.24
2017-09-15T21:27:15.261Z,71.25
2017-09-15T21:29:42.406Z,71.25
2017-09-15T21:32:09.569Z,71.24
2017-09-15T21:34:36.705Z,71.23
2017-09-15T21:37:03.867Z,71.23
2017-09-15T21:39:31.021Z,71.23
2017-09-15T21:41:58.165Z,71.23
2017-09-15T21:44:25.319Z,71.23
2017-09-15T21:46:52.471Z,71.22
2017-09-15T21:49:19.605Z,71.22
2017-09-15T21:51:46.761Z,71.23
2017-09-15T21:54:13.912Z,71.22
2017-09-15T21:56:41.066Z,71.22
2017-09-15T21:59:08.215Z,71.22
2017-09-15T22:01:35.368Z,71.21
2017-09-15T22:04:08.100Z,71.21
2017-09-15T22:06:35.261Z,71.21
2017-09-15T22:09:03.188Z,71.21
2017-09-15T22:11:30.340Z,71.21
2017-09-15T22:13:57.499Z,71.21
2017-09-15T22:16:24.647Z,71.21
2017-09-15T22:18:51.952Z,71.20
2017-09-15T22:21:19.873Z,71.19
2017-09-15T22:23:47.027Z,71.19
2017-09-15T22:26:14.177Z,71.19
2017-09-15T22:28:41.332Z,71.19
2017-09-15T22:31:08.492Z,71.19
2017-09-15T22:33:35.652Z,71.18
2017-09-15T22:36:02.804Z,71.18
2017-09-15T22:38:29.968Z,71.18
2017-09-15T22:40:57.120Z,71.17
2017-09-15T22:43:24.277Z,71.16
2017-09-15T22:45:51.437Z,71.16
2017-09-15T22:48:18.604Z,71.16
2017-09-15T22:50:45.761Z,71.15
2017-09-15T22:53:12.923Z,71.15
2017-09-15T22:55:40.071Z,71.15
2017-09-15T22:58:07.225Z,71.16
2017-09-15T23:00:34.379Z,71.15
2017-09-15T23:03:01.532Z,71.14
2017-09-15T23:05:28.684Z,71.15
2017-09-15T23:07:55.842Z,71.14
2017-09-15T23:10:22.996Z,71.13
2017-09-15T23:12:50.156Z,71.13
2017-09-15T23:15:18.073Z,71.13
2017-09-15T23:17:45.231Z,71.14
2017-09-15T23:20:12.379Z,71.13
2017-09-15T23:22:39.544Z,71.13
2017-09-15T23:25:06.696Z,71.12
2017-09-15T23:27:33.852Z,71.13
2017-09-15T23:30:01.016Z,71.12
2017-09-15T23:32:28.172Z,71.10
2017-09-15T23:34:55.328Z,71.10
2017-09-15T23:37:22.487Z,71.11
2017-09-15T23:39:49.658Z,71.10
2017-09-15T23:42:16.819Z,71.10
2017-09-15T23:44:43.980Z,71.11
2017-09-15T23:47:11.135Z,71.09
2017-09-15T23:49:39.068Z,71.09
2017-09-15T23:52:06.298Z,71.09
2017-09-15T23:54:33.467Z,71.08
2017-09-15T23:57:00.649Z,71.08
2017-09-15T23:59:27.803Z,71.09
